CST,Max TemperatureF,Mean TemperatureF,Min TemperatureF,Max Dew PointF,MeanDew PointF,Min DewpointF,Max Humidity, Mean Humidity, Min Humidity, Max Sea Level PressureIn, Mean Sea Level PressureIn, Min Sea Level PressureIn, Max VisibilityMiles, Mean VisibilityMiles, Min VisibilityMiles, Max Wind SpeedMPH, Mean Wind SpeedMPH, Max Gust SpeedMPH,PrecipitationIn, CloudCover, Events, WindDirDegrees
2011-11-1,77,63,48,52,45,42,80,55,29,30.19,30.12,30.06,10,10,10,17,9,22,0.00,0,,163
2011-11-2,80,66,51,61,55,40,93,71,48,30.19,30.06,29.97,10,9,5,30,13,37,T,4,Rain,182
2011-11-3,60,51,41,38,28,20,67,45,23,30.34,30.27,30.21,10,10,10,20,12,32,0.00,1,,316
2011-11-4,67,51,34,40,32,25,75,55,34,30.27,30.19,30.12,10,10,10,9,4,13,0.00,0,,57
2011-11-5,69,57,45,51,44,40,92,65,37,30.13,30.04,29.93,10,10,7,21,12,26,0.00,1,,140
2011-11-6,79,71,63,63,59,53,84,69,54,30.08,30.02,29.97,10,10,10,18,12,24,0.00,6,,160
2011-11-7,77,72,66,64,63,62,87,76,64,30.10,30.03,29.95,10,10,10,20,13,24,0.00,6,,151
2011-11-8,75,64,53,70,64,50,97,88,78,30.09,29.92,29.82,10,8,0,22,9,28,0.82,7,Fog-Rain-Thunderstorm,178
2011-11-9,61,52,43,49,38,34,89,64,39,30.38,30.27,30.11,10,10,10,24,10,30,0.00,0,,339
2011-11-10,64,51,37,37,33,28,85,56,26,30.46,30.37,30.29,10,10,10,17,6,21,0.00,0,,305
2011-11-11,68,53,37,37,31,25,92,56,20,30.28,30.18,30.08,10,10,10,21,10,25,0.00,0,,187
2011-11-12,74,62,50,59,50,36,77,63,49,30.08,29.98,29.89,10,10,10,26,14,35,0.00,0,,181
2011-11-13,82,73,64,66,62,59,87,67,47,29.92,29.87,29.79,10,10,10,25,15,31,0.00,4,,191
2011-11-14,83,77,70,67,65,61,90,69,47,29.91,29.83,29.76,10,10,10,22,13,28,0.00,6,,185
2011-11-15,77,71,64,70,66,64,100,90,79,29.83,29.76,29.68,10,7,0,18,8,23,0.87,7,Fog-Rain-Thunderstorm,191
2011-11-16,75,63,50,64,60,42,100,83,66,30.29,29.89,29.73,10,5,0,24,7,33,0.01,6,Fog-Rain,8
2011-11-17,59,49,39,42,32,25,80,54,28,30.47,30.37,30.30,10,10,10,14,6,23,0.00,0,,41
2011-11-18,65,52,38,52,36,29,76,56,36,30.28,30.15,30.01,10,10,10,21,11,28,0.00,3,,154
2011-11-19,77,68,59,67,61,53,90,77,64,29.99,29.94,29.88,10,10,10,26,14,31,0.00,8,,173
2011-11-20,82,77,71,70,68,64,93,74,55,30.12,30.05,29.96,10,10,8,18,11,25,0.00,5,,181
2011-11-21,75,65,55,68,60,54,93,86,79,30.16,30.04,29.84,10,6,2,24,8,32,0.09,7,Rain,22
2011-11-22,72,60,48,66,52,46,100,92,83,30.22,30.01,29.86,10,7,1,29,7,41,1.11,7,Rain-Thunderstorm,320
2011-11-23,67,56,44,48,44,41,93,67,40,30.32,30.26,30.22,10,8,4,8,3,14,0.00,0,,352
2011-11-24,53,48,43,50,47,42,100,92,83,30.36,30.29,30.21,10,3,0,12,6,14,0.00,6,Fog,117
2011-11-25,71,57,42,58,48,41,100,77,53,30.20,30.10,29.93,10,5,0,18,9,28,0.00,4,Fog,157
2011-11-26,65,56,47,61,55,39,100,86,71,30.14,29.94,29.86,10,8,2,28,13,37,0.46,7,Rain,227
2011-11-27,50,43,35,37,26,21,76,58,39,30.27,30.20,30.12,10,10,10,24,12,32,0.00,0,,325
2011-11-28,52,41,30,29,25,22,75,54,33,30.18,30.11,30.04,10,10,10,5,5,7,0.00,0,,308
2011-11-29,60,47,34,33,29,24,75,53,31,30.23,30.16,30.09,10,10,10,17,8,22,0.00,0,,321
2011-11-30,59,47,34,34,31,26,85,58,30,30.28,30.20,30.13,10,10,10,8,3,10,0.00,0,,145